Time;durP1;ratioP1;P1;durP2;ratioP2;P2;SDS_P1;SDS_P2;PMS_P1;PMS_P2;Temp;Humidity;BMP_temperature;BMP_pressure;BME280_temperature;BME280_humidity;BME280_pressure;Samples;Min_cycle;Max_cycle;Signal;HPM_P1;HPM_P2
2023/09/06 00:01:41;;;;;;;1.88;1.10;;;17.50;99.90;;;;;;5059203;28;20659;-86
2023/09/06 00:04:06;;;;;;;2.90;1.20;;;17.50;99.90;;;;;;5059037;28;20184;-85
2023/09/06 00:06:32;;;;;;;5.72;1.60;;;17.50;99.90;;;;;;5058975;28;20514;-86
2023/09/06 00:08:58;;;;;;;2.65;1.33;;;17.40;99.90;;;;;;5058893;28;20204;-86
2023/09/06 00:11:25;;;;;;;3.00;1.45;;;17.30;99.90;;;;;;5059049;28;20223;-86
2023/09/06 00:13:52;;;;;;;1.65;1.30;;;17.30;99.90;;;;;;5076733;28;20201;-86
2023/09/06 00:16:18;;;;;;;4.60;1.40;;;17.20;99.90;;;;;;5059086;28;20239;-86
2023/09/06 00:18:44;;;;;;;1.88;1.33;;;17.20;99.90;;;;;;5076606;28;20169;-85
2023/09/06 00:21:09;;;;;;;2.42;1.55;;;17.20;99.90;;;;;;5058880;28;20166;-86
2023/09/06 00:23:35;;;;;;;4.65;1.27;;;17.10;99.90;;;;;;5058850;28;20181;-86
2023/09/06 00:26:01;;;;;;;1.85;1.13;;;17.10;99.90;;;;;;5058994;28;20170;-86
2023/09/06 00:28:27;;;;;;;3.63;1.50;;;17.00;99.90;;;;;;5076619;28;20181;-86
2023/09/06 00:30:57;;;;;;;2.20;1.30;;;17.00;99.90;;;;;;5076668;28;20318;-86
2023/09/06 00:33:26;;;;;;;3.47;1.40;;;17.10;99.90;;;;;;5058085;28;20276;-86
2023/09/06 00:35:53;;;;;;;1.95;1.13;;;17.10;99.90;;;;;;5058645;28;20214;-86
2023/09/06 00:38:20;;;;;;;2.47;1.33;;;17.20;99.90;;;;;;5076501;28;20161;-86
2023/09/06 00:40:51;;;;;;;1.88;1.48;;;17.20;99.90;;;;;;5058565;28;20650;-85
2023/09/06 00:43:17;;;;;;;2.38;1.40;;;17.10;99.90;;;;;;5057990;28;20180;-86
2023/09/06 00:45:45;;;;;;;1.80;1.50;;;17.10;99.90;;;;;;5076481;28;20177;-86
2023/09/06 00:48:21;;;;;;;1.52;1.40;;;17.10;99.90;;;;;;5058025;28;20272;-86
2023/09/06 00:50:53;;;;;;;1.33;1.23;;;17.10;99.90;;;;;;5076380;28;20315;-86
2023/09/06 00:53:39;;;;;;;2.03;1.30;;;17.00;99.90;;;;;;5058159;28;20626;-85
2023/09/06 00:56:08;;;;;;;2.92;1.45;;;16.90;99.90;;;;;;5058198;28;20181;-85
2023/09/06 00:58:37;;;;;;;1.65;1.30;;;16.90;99.90;;;;;;5058321;28;20262;-86
2023/09/06 01:01:05;;;;;;;2.42;1.42;;;16.90;99.90;;;;;;5074673;28;20164;-86
2023/09/06 01:03:31;;;;;;;2.42;1.50;;;16.80;99.90;;;;;;5075629;28;20497;-86
2023/09/06 01:06:23;;;;;;;1.55;1.30;;;16.70;99.90;;;;;;5076137;28;20174;-85
2023/09/06 01:08:58;;;;;;;1.35;1.25;;;16.70;99.90;;;;;;5075879;28;20254;-86
2023/09/06 01:11:26;;;;;;;2.42;1.70;;;16.70;99.90;;;;;;5058063;28;20165;-85
2023/09/06 01:13:53;;;;;;;3.40;1.50;;;16.60;99.90;;;;;;5057861;28;20247;-85
2023/09/06 01:19:18;;;;;;;2.38;1.38;;;16.70;99.90;;;;;;5439730;22;20232;-90
2023/09/06 01:21:58;;;;;;;2.70;1.38;;;16.70;99.90;;;;;;5079129;28;20176;-91
2023/09/06 01:24:25;;;;;;;2.45;1.20;;;16.70;99.90;;;;;;5079017;28;20505;-91
2023/09/06 01:26:52;;;;;;;1.63;1.40;;;16.60;99.90;;;;;;5079152;28;20255;-90
2023/09/06 01:29:32;;;;;;;1.95;1.23;;;16.60;99.90;;;;;;5096800;28;20196;-91
2023/09/06 01:31:58;;;;;;;1.95;1.48;;;16.50;99.90;;;;;;5078756;28;20172;-90
2023/09/06 01:34:24;;;;;;;2.33;1.40;;;16.50;99.90;;;;;;5078806;28;20214;-90
2023/09/06 01:36:49;;;;;;;3.03;1.30;;;16.60;99.90;;;;;;5078901;28;20169;-91
2023/09/06 01:39:21;;;;;;;6.13;1.55;;;16.60;99.90;;;;;;5078777;28;20275;-90
2023/09/06 01:41:47;;;;;;;4.18;1.50;;;16.50;99.90;;;;;;5078698;28;20222;-91
2023/09/06 01:44:14;;;;;;;2.30;1.27;;;16.50;99.90;;;;;;5096468;28;20176;-90
2023/09/06 01:46:40;;;;;;;2.20;1.40;;;16.40;99.90;;;;;;5078438;28;20176;-90
2023/09/06 01:49:08;;;;;;;2.90;1.05;;;16.30;99.90;;;;;;5078132;28;20230;-90
2023/09/06 01:51:35;;;;;;;3.80;1.52;;;16.40;99.90;;;;;;5078546;28;20167;-90
2023/09/06 01:54:04;;;;;;;5.50;1.63;;;16.30;99.90;;;;;;5078312;28;20214;-90
2023/09/06 01:56:30;;;;;;;2.63;1.40;;;16.30;99.90;;;;;;5078460;28;20177;-91
2023/09/06 01:58:56;;;;;;;2.45;1.38;;;16.40;99.90;;;;;;5078215;28;20176;-90
2023/09/06 02:01:30;;;;;;;2.33;1.50;;;16.50;99.90;;;;;;5078165;28;20290;-91
2023/09/06 02:03:56;;;;;;;3.40;1.63;;;16.40;99.90;;;;;;5078067;28;20172;-91
2023/09/06 02:06:22;;;;;;;1.63;1.40;;;16.40;99.90;;;;;;5078154;28;20191;-91
2023/09/06 02:08:49;;;;;;;6.05;1.55;;;16.30;99.90;;;;;;5078324;28;20199;-91
2023/09/06 02:11:15;;;;;;;2.25;1.40;;;16.30;99.90;;;;;;5078151;28;20188;-90
2023/09/06 02:13:40;;;;;;;3.22;1.58;;;16.20;99.90;;;;;;5078127;28;20172;-90
2023/09/06 02:16:06;;;;;;;2.08;1.30;;;16.20;99.90;;;;;;5078043;28;20184;-90
2023/09/06 02:18:32;;;;;;;2.55;1.30;;;16.10;99.90;;;;;;5077509;28;20715;-90
2023/09/06 02:20:58;;;;;;;2.65;1.63;;;16.00;99.90;;;;;;5077954;28;20181;-91
2023/09/06 02:23:24;;;;;;;3.95;1.50;;;15.90;99.90;;;;;;5077800;28;20607;-90
2023/09/06 02:25:50;;;;;;;2.63;1.38;;;15.80;99.90;;;;;;5077907;28;20172;-91
2023/09/06 02:28:17;;;;;;;2.08;1.40;;;15.80;99.90;;;;;;5077914;28;20183;-90
2023/09/06 02:30:44;;;;;;;5.82;1.60;;;15.80;99.90;;;;;;5077929;28;20294;-91
2023/09/06 02:33:16;;;;;;;3.17;1.55;;;15.70;99.90;;;;;;5077731;28;20177;-90
2023/09/06 02:35:42;;;;;;;3.35;1.45;;;15.80;99.90;;;;;;5077659;28;20668;-90
2023/09/06 02:38:11;;;;;;;3.10;1.52;;;15.80;99.90;;;;;;5077411;28;20183;-90
2023/09/06 02:40:42;;;;;;;2.28;1.70;;;15.80;99.90;;;;;;5077239;28;20611;-90
2023/09/06 02:43:10;;;;;;;3.03;1.52;;;15.80;99.90;;;;;;5077431;28;20176;-90
2023/09/06 02:45:36;;;;;;;2.78;1.65;;;15.90;99.90;;;;;;5077496;28;20199;-91
2023/09/06 02:48:15;;;;;;;1.85;1.27;;;16.00;99.90;;;;;;5073718;28;20634;-90
2023/09/06 02:50:44;;;;;;;2.63;1.75;;;16.10;99.90;;;;;;5057239;28;20217;-91
2023/09/06 02:53:20;;;;;;;3.20;1.50;;;16.00;99.90;;;;;;5057695;28;20191;-92
2023/09/06 02:55:53;;;;;;;2.15;1.65;;;16.00;99.90;;;;;;5057572;28;20514;-91
2023/09/06 02:58:23;;;;;;;3.35;1.77;;;16.00;99.90;;;;;;5057465;28;20172;-91
2023/09/06 03:00:57;;;;;;;3.65;1.60;;;15.90;99.90;;;;;;5057654;28;20177;-92
2023/09/06 03:03:27;;;;;;;1.70;1.30;;;15.80;99.90;;;;;;5057119;28;20169;-91
2023/09/06 03:05:58;;;;;;;4.22;1.58;;;15.70;99.90;;;;;;5057272;28;20234;-91
2023/09/06 03:08:25;;;;;;;3.85;1.60;;;15.60;99.90;;;;;;5057238;28;20196;-91
2023/09/06 03:10:54;;;;;;;2.50;1.50;;;15.60;99.90;;;;;;5057208;28;20215;-91
2023/09/06 03:13:20;;;;;;;1.77;1.38;;;15.60;99.90;;;;;;5057520;28;20169;-90
2023/09/06 03:15:47;;;;;;;1.73;1.30;;;15.70;99.90;;;;;;5057302;28;20177;-91
2023/09/06 03:18:13;;;;;;;1.98;1.40;;;15.60;99.90;;;;;;5057727;28;20221;-91
2023/09/06 03:20:55;;;;;;;3.83;1.38;;;15.50;99.90;;;;;;5074000;28;20207;-93
2023/09/06 03:23:21;;;;;;;1.30;1.20;;;15.50;99.90;;;;;;5074871;28;20579;-92
2023/09/06 03:25:48;;;;;;;2.10;1.27;;;15.40;99.90;;;;;;5077904;28;20169;-91
2023/09/06 03:28:14;;;;;;;2.53;1.30;;;15.40;99.90;;;;;;5078123;28;20181;-90
2023/09/06 03:30:45;;;;;;;2.25;1.30;;;15.30;99.90;;;;;;5077704;28;20209;-91
2023/09/06 03:33:11;;;;;;;3.53;1.52;;;15.40;99.90;;;;;;5078848;28;20180;-90
2023/09/06 03:35:37;;;;;;;2.03;1.35;;;15.20;99.90;;;;;;5077587;28;20623;-91
2023/09/06 03:38:07;;;;;;;3.38;1.50;;;15.20;99.90;;;;;;5078756;28;20191;-91
2023/09/06 03:40:35;;;;;;;1.80;1.50;;;15.20;99.90;;;;;;5077650;28;20169;-90
2023/09/06 03:43:05;;;;;;;1.52;1.38;;;15.10;99.90;;;;;;5077674;28;20197;-92
2023/09/06 03:45:36;;;;;;;1.70;1.30;;;15.10;99.90;;;;;;5077417;28;20173;-91
2023/09/06 03:48:04;;;;;;;2.05;1.75;;;15.20;99.90;;;;;;5077538;28;20264;-90
2023/09/06 03:50:30;;;;;;;1.58;1.20;;;15.20;99.90;;;;;;5077225;28;20205;-90
2023/09/06 03:52:57;;;;;;;7.30;1.70;;;15.30;99.90;;;;;;5077081;28;20184;-90
2023/09/06 03:55:24;;;;;;;1.77;1.55;;;15.30;99.90;;;;;;5077438;28;20173;-90
2023/09/06 03:57:52;;;;;;;2.28;1.70;;;15.30;99.90;;;;;;5077289;28;20180;-91
2023/09/06 04:00:30;;;;;;;1.70;1.58;;;15.30;99.90;;;;;;5077394;28;20267;-91
2023/09/06 04:02:56;;;;;;;2.03;1.63;;;15.20;99.90;;;;;;5077297;28;20173;-90
2023/09/06 04:05:25;;;;;;;2.42;1.77;;;15.20;99.90;;;;;;5077114;28;20184;-91
2023/09/06 04:07:58;;;;;;;2.10;1.63;;;15.10;99.90;;;;;;5060605;28;20173;-90
2023/09/06 04:10:27;;;;;;;4.70;1.92;;;15.00;99.90;;;;;;5077196;28;20204;-91
2023/09/06 04:12:56;;;;;;;1.63;1.42;;;14.90;99.90;;;;;;5077146;28;20185;-91
2023/09/06 04:15:22;;;;;;;2.42;1.30;;;14.90;99.90;;;;;;5077133;28;20173;-90
2023/09/06 04:17:58;;;;;;;4.07;1.70;;;14.90;99.90;;;;;;5078441;28;20207;-90
2023/09/06 04:20:31;;;;;;;1.60;1.50;;;15.00;99.90;;;;;;5080035;28;20211;-90
2023/09/06 04:23:06;;;;;;;2.08;1.80;;;15.00;99.90;;;;;;5080026;28;20179;-90
2023/09/06 04:25:33;;;;;;;3.88;1.45;;;15.00;99.90;;;;;;5081016;28;20229;-90
2023/09/06 04:28:00;;;;;;;1.90;1.40;;;15.00;99.90;;;;;;5098390;28;20168;-90
2023/09/06 04:30:32;;;;;;;2.40;1.52;;;14.90;99.90;;;;;;5079852;28;20208;-90
2023/09/06 04:32:59;;;;;;;3.15;1.52;;;14.90;99.90;;;;;;5080246;28;20169;-89
2023/09/06 04:35:47;;;;;;;4.78;1.70;;;14.90;99.90;;;;;;5079678;28;20177;-90
2023/09/06 04:38:23;;;;;;;3.08;1.67;;;15.00;99.90;;;;;;5080212;28;20164;-90
2023/09/06 04:40:49;;;;;;;1.83;1.33;;;15.00;99.90;;;;;;5098202;28;20168;-90
2023/09/06 04:43:19;;;;;;;4.00;1.85;;;14.90;99.90;;;;;;5079290;28;20173;-90
2023/09/06 04:45:48;;;;;;;2.13;1.60;;;15.00;99.90;;;;;;5079897;28;20180;-90
2023/09/06 04:48:17;;;;;;;2.50;1.77;;;15.00;99.90;;;;;;5079342;28;20267;-90
2023/09/06 04:50:44;;;;;;;4.85;1.90;;;15.10;99.90;;;;;;5079852;28;20208;-93
2023/09/06 04:53:12;;;;;;;1.40;1.30;;;15.00;99.90;;;;;;5070227;28;20177;-90
2023/09/06 04:55:41;;;;;;;1.65;1.50;;;15.00;99.90;;;;;;5059722;28;20169;-91
2023/09/06 04:58:08;;;;;;;2.03;1.55;;;14.90;99.90;;;;;;5059572;28;20177;-91
2023/09/06 05:00:38;;;;;;;1.80;1.52;;;14.80;99.90;;;;;;5059724;28;20214;-91
2023/09/06 05:03:18;;;;;;;3.28;1.33;;;14.80;99.90;;;;;;5059407;28;20226;-91
2023/09/06 05:05:48;;;;;;;1.38;1.23;;;14.80;99.90;;;;;;5059479;28;20184;-91
2023/09/06 05:08:14;;;;;;;1.92;1.58;;;14.80;99.90;;;;;;5059316;28;20185;-92
2023/09/06 05:10:40;;;;;;;2.90;1.40;;;14.90;99.90;;;;;;5059166;28;20246;-91
2023/09/06 05:13:07;;;;;;;2.45;2.03;;;14.90;99.90;;;;;;5059605;28;20173;-91
2023/09/06 05:15:35;;;;;;;2.35;2.15;;;15.10;99.90;;;;;;5059736;28;20177;-92
2023/09/06 05:18:01;;;;;;;3.40;2.28;;;15.10;99.90;;;;;;5061838;28;20274;-92
2023/09/06 05:20:30;;;;;;;3.17;2.00;;;15.20;99.90;;;;;;5079234;28;20176;-92
2023/09/06 05:22:57;;;;;;;3.95;2.28;;;15.20;99.90;;;;;;5097280;28;20200;-91
2023/09/06 05:25:23;;;;;;;2.60;1.88;;;15.20;99.90;;;;;;5079429;28;20334;-92
2023/09/06 05:27:50;;;;;;;2.95;1.98;;;15.20;99.90;;;;;;5079222;28;20180;-92
2023/09/06 05:30:16;;;;;;;3.10;2.00;;;15.30;99.90;;;;;;5079171;28;20266;-92
2023/09/06 05:32:47;;;;;;;3.22;2.30;;;15.40;99.90;;;;;;5079170;28;20955;-90
2023/09/06 05:35:13;;;;;;;10.40;2.53;;;15.50;99.90;;;;;;5078734;28;20203;-90
2023/09/06 05:37:40;;;;;;;3.47;2.38;;;15.60;99.90;;;;;;5079387;28;20626;-91
2023/09/06 05:40:07;;;;;;;3.17;2.40;;;15.70;99.90;;;;;;5078263;28;20183;-91
2023/09/06 05:42:33;;;;;;;3.35;2.38;;;15.80;99.90;;;;;;5078535;28;20176;-91
2023/09/06 05:44:59;;;;;;;4.70;2.97;;;15.80;99.90;;;;;;5079368;28;20232;-91
2023/09/06 05:47:25;;;;;;;4.10;2.60;;;15.90;99.90;;;;;;5077828;28;20260;-90
2023/09/06 05:49:55;;;;;;;7.45;2.85;;;15.90;99.90;;;;;;5079013;28;20642;-93
2023/09/06 05:52:24;;;;;;;4.70;3.40;;;16.10;99.90;;;;;;5078818;28;20187;-91
2023/09/06 05:54:50;;;;;;;9.77;3.20;;;16.20;99.90;;;;;;5078947;28;20165;-91
2023/09/06 05:57:16;;;;;;;4.70;2.65;;;16.40;99.90;;;;;;5078052;28;20173;-92
2023/09/06 05:59:42;;;;;;;6.05;3.70;;;16.50;99.90;;;;;;5078363;28;20206;-91
2023/09/06 06:02:07;;;;;;;6.03;3.28;;;16.70;99.90;;;;;;5078459;28;20226;-92
2023/09/06 06:04:34;;;;;;;5.50;3.30;;;16.80;99.90;;;;;;5077967;28;20190;-91
2023/09/06 06:07:00;;;;;;;4.03;2.75;;;17.00;99.90;;;;;;5078275;28;20168;-92
2023/09/06 06:09:25;;;;;;;5.18;2.90;;;17.20;99.90;;;;;;5078044;28;20226;-93
2023/09/06 06:11:54;;;;;;;6.32;3.35;;;17.30;99.90;;;;;;5078434;28;20176;-92
2023/09/06 06:14:27;;;;;;;6.80;3.13;;;17.40;99.90;;;;;;5078125;28;20515;-92
2023/09/06 06:16:54;;;;;;;4.53;2.83;;;17.50;99.90;;;;;;5077983;28;20165;-91
2023/09/06 06:19:19;;;;;;;6.65;2.78;;;17.60;99.90;;;;;;5074630;28;20267;-92
2023/09/06 06:21:46;;;;;;;4.75;3.30;;;17.70;99.90;;;;;;5074847;28;20619;-88
2023/09/06 06:24:13;;;;;;;7.25;3.17;;;17.80;99.90;;;;;;5074833;28;20169;-88
2023/09/06 06:26:38;;;;;;;3.42;2.67;;;17.90;99.90;;;;;;5075838;28;20166;-90
2023/09/06 06:29:06;;;;;;;3.30;2.10;;;18.00;99.90;;;;;;5073545;28;20205;-87
2023/09/06 06:31:32;;;;;;;4.20;2.60;;;18.10;99.90;;;;;;5074007;28;20264;-89
2023/09/06 06:34:02;;;;;;;8.27;2.65;;;18.10;99.90;;;;;;5075721;28;20635;-89
2023/09/06 06:36:31;;;;;;;3.92;2.47;;;18.20;99.90;;;;;;5074342;28;20223;-89
2023/09/06 06:38:56;;;;;;;3.13;2.05;;;18.30;99.90;;;;;;5074318;28;20177;-89
2023/09/06 06:41:23;;;;;;;3.13;1.90;;;18.30;99.90;;;;;;5074167;28;20230;-88
2023/09/06 06:43:49;;;;;;;4.80;2.00;;;18.40;99.90;;;;;;5074012;28;20211;-87
2023/09/06 06:46:29;;;;;;;3.85;2.22;;;18.50;99.90;;;;;;5073947;28;20560;-88
2023/09/06 06:48:56;;;;;;;5.80;2.50;;;18.50;99.90;;;;;;5073101;28;20204;-87
2023/09/06 06:51:38;;;;;;;3.67;2.15;;;18.50;99.90;;;;;;5073525;28;20177;-87
2023/09/06 06:54:06;;;;;;;3.03;2.40;;;18.60;99.90;;;;;;5073948;28;20176;-88
2023/09/06 06:56:32;;;;;;;4.82;2.55;;;18.70;99.90;;;;;;5073719;28;20559;-88
2023/09/06 06:58:58;;;;;;;4.53;2.22;;;18.80;99.90;;;;;;5074582;28;20263;-88
2023/09/06 07:01:27;;;;;;;5.75;2.40;;;18.90;99.90;;;;;;5073204;28;20272;-87
2023/09/06 07:04:01;;;;;;;2.92;2.47;;;19.00;99.90;;;;;;5073794;28;20199;-88
2023/09/06 07:06:29;;;;;;;3.03;2.70;;;19.00;99.90;;;;;;5073716;28;20181;-89
2023/09/06 07:08:55;;;;;;;3.13;2.60;;;19.00;99.90;;;;;;5073769;28;20258;-88
2023/09/06 07:11:21;;;;;;;6.82;2.60;;;19.20;99.90;;;;;;5073249;28;20177;-89
2023/09/06 07:13:49;;;;;;;5.72;2.50;;;19.30;99.90;;;;;;5073802;28;20234;-88
2023/09/06 07:16:16;;;;;;;3.45;2.50;;;19.40;99.90;;;;;;5069759;28;20186;-88
2023/09/06 07:18:42;;;;;;;4.85;2.25;;;19.40;99.90;;;;;;5053663;28;20668;-85
2023/09/06 07:21:08;;;;;;;3.15;2.20;;;19.60;99.90;;;;;;5053775;28;20185;-88
2023/09/06 07:23:40;;;;;;;4.43;2.00;;;19.60;99.90;;;;;;5053860;28;20632;-87
2023/09/06 07:26:06;;;;;;;3.45;2.38;;;19.70;99.90;;;;;;5053881;28;20174;-88
2023/09/06 07:28:40;;;;;;;6.38;2.22;;;19.80;99.90;;;;;;5066687;28;20488;-88
2023/09/06 07:31:07;;;;;;;5.20;2.22;;;20.00;99.90;;;;;;5073289;28;20177;-90
2023/09/06 07:33:33;;;;;;;3.13;2.35;;;20.00;99.90;;;;;;5073633;28;20173;-89
2023/09/06 07:35:59;;;;;;;5.22;2.72;;;20.10;99.90;;;;;;5073603;28;20222;-86
2023/09/06 07:38:24;;;;;;;4.15;2.28;;;20.10;99.90;;;;;;5072717;28;20264;-90
2023/09/06 07:41:01;;;;;;;6.40;2.70;;;20.20;99.90;;;;;;5072535;28;20184;-89
2023/09/06 07:43:28;;;;;;;6.13;2.90;;;20.30;99.90;;;;;;5073827;28;20180;-88
2023/09/06 07:45:58;;;;;;;6.80;3.00;;;20.40;99.90;;;;;;5073462;28;20208;-89
2023/09/06 07:48:26;;;;;;;4.43;2.45;;;20.50;99.90;;;;;;5073348;28;20687;-90
2023/09/06 07:50:52;;;;;;;3.28;2.47;;;20.60;99.90;;;;;;5073468;28;20205;-86
2023/09/06 07:53:18;;;;;;;3.42;2.50;;;20.70;99.90;;;;;;5073692;28;20181;-90
2023/09/06 07:55:47;;;;;;;3.97;2.30;;;20.80;99.90;;;;;;5073634;28;20186;-90
2023/09/06 07:58:14;;;;;;;5.93;2.65;;;20.90;99.90;;;;;;5073594;28;20185;-89
2023/09/06 08:00:40;;;;;;;6.10;2.80;;;21.00;99.90;;;;;;5073260;28;20169;-89
2023/09/06 08:03:06;;;;;;;8.23;2.90;;;21.00;99.90;;;;;;5071832;28;20173;-89
2023/09/06 08:05:35;;;;;;;7.20;3.03;;;21.10;99.90;;;;;;5073227;28;20223;-90
2023/09/06 08:08:02;;;;;;;5.72;2.72;;;21.30;99.90;;;;;;5073550;28;20173;-90
2023/09/06 08:10:28;;;;;;;4.30;2.70;;;21.40;99.90;;;;;;5076999;28;20555;-89
2023/09/06 08:12:54;;;;;;;5.68;2.70;;;21.40;99.90;;;;;;5076904;28;20177;-90
2023/09/06 08:15:22;;;;;;;4.88;2.33;;;21.50;99.90;;;;;;5077058;28;20254;-91
2023/09/06 08:17:48;;;;;;;5.43;2.85;;;21.50;99.90;;;;;;5076580;28;20176;-92
2023/09/06 08:20:15;;;;;;;4.63;2.50;;;21.60;99.90;;;;;;5077106;28;20635;-90
2023/09/06 08:22:47;;;;;;;4.60;2.33;;;21.70;99.90;;;;;;5076804;28;20189;-89
2023/09/06 08:25:17;;;;;;;5.35;2.42;;;21.80;99.90;;;;;;5076928;28;20596;-88
2023/09/06 08:27:43;;;;;;;4.40;2.20;;;21.90;99.90;;;;;;5076927;28;20177;-89
2023/09/06 08:30:15;;;;;;;6.82;2.30;;;22.10;99.90;;;;;;5076361;28;20659;-88
2023/09/06 08:32:42;;;;;;;5.93;2.30;;;22.30;99.90;;;;;;5076442;28;20630;-90
2023/09/06 08:35:17;;;;;;;5.10;2.33;;;22.40;99.90;;;;;;5076770;28;20627;-91
2023/09/06 08:37:45;;;;;;;5.28;2.30;;;22.50;99.90;;;;;;5076330;28;20599;-89
2023/09/06 08:40:15;;;;;;;3.85;2.30;;;22.60;99.90;;;;;;5076257;28;20181;-89
2023/09/06 08:42:44;;;;;;;2.65;1.83;;;22.70;99.90;;;;;;5076512;28;20174;-89
2023/09/06 08:45:11;;;;;;;4.53;2.08;;;22.80;99.90;;;;;;5076517;28;20611;-88
2023/09/06 08:47:39;;;;;;;4.97;2.28;;;23.00;99.90;;;;;;5076256;28;20161;-90
2023/09/06 08:50:09;;;;;;;7.07;2.40;;;23.10;99.90;;;;;;5076395;28;20213;-90
2023/09/06 08:52:39;;;;;;;3.65;1.95;;;23.20;99.90;;;;;;5076423;28;20197;-89
2023/09/06 08:55:06;;;;;;;6.93;2.40;;;23.30;99.90;;;;;;5075686;28;20177;-90
2023/09/06 08:57:32;;;;;;;5.10;2.38;;;23.40;99.90;;;;;;5075691;28;20169;-92
2023/09/06 08:59:58;;;;;;;6.40;2.10;;;23.40;99.90;;;;;;5076359;28;20184;-92
2023/09/06 09:02:24;;;;;;;3.65;2.22;;;23.50;99.90;;;;;;5076089;28;20280;-90
2023/09/06 09:04:50;;;;;;;7.45;2.58;;;23.60;99.90;;;;;;5076439;28;20223;-91
2023/09/06 09:07:18;;;;;;;9.07;2.22;;;23.70;99.90;;;;;;5076365;28;20264;-91
2023/09/06 09:10:10;;;;;;;3.90;2.28;;;23.70;99.90;;;;;;5075928;28;20213;-91
2023/09/06 09:12:37;;;;;;;2.97;2.20;;;23.80;99.90;;;;;;5075949;28;20630;-91
2023/09/06 09:15:05;;;;;;;3.97;2.20;;;23.90;99.90;;;;;;5075971;28;20207;-91
2023/09/06 09:17:32;;;;;;;7.45;2.10;;;24.00;99.90;;;;;;5075679;28;20181;-90
2023/09/06 09:20:10;;;;;;;6.70;2.35;;;24.00;99.90;;;;;;5080293;28;20232;-96
2023/09/06 09:22:36;;;;;;;6.00;1.90;;;24.20;99.90;;;;;;5086321;28;20228;-96
2023/09/06 09:28:12;;;;;;;4.15;1.58;;;24.40;99.90;;;;;;5095344;23;20260;-95
2023/09/06 09:30:38;;;;;;;4.75;2.08;;;24.40;99.90;;;;;;5063313;28;20221;-96
2023/09/06 09:33:04;;;;;;;3.42;1.60;;;24.50;99.90;;;;;;5063778;28;20181;-96
2023/09/06 09:35:35;;;;;;;4.43;2.15;;;24.60;99.90;;;;;;5066378;28;20177;-96
2023/09/06 09:38:04;;;;;;;3.65;2.03;;;24.80;99.90;;;;;;5063243;28;20165;-95
2023/09/06 09:40:39;;;;;;;2.42;1.80;;;24.80;99.90;;;;;;5081627;28;20184;-96
2023/09/06 09:43:05;;;;;;;3.83;1.70;;;24.90;99.90;;;;;;5063303;28;20181;-94
2023/09/06 09:45:43;;;;;;;4.93;1.48;;;25.10;99.90;;;;;;5060706;28;20650;-96
2023/09/06 09:48:11;;;;;;;3.45;1.98;;;25.30;99.90;;;;;;5060468;28;20189;-96
2023/09/06 09:50:42;;;;;;;3.30;2.08;;;25.40;99.90;;;;;;5061233;28;20224;-95
2023/09/06 09:53:13;;;;;;;1.77;1.67;;;25.50;99.90;;;;;;5068760;28;20178;-95
2023/09/06 09:55:48;;;;;;;2.92;1.50;;;25.60;99.90;;;;;;5069468;28;20203;-96
2023/09/06 09:58:15;;;;;;;2.25;1.73;;;25.70;99.90;;;;;;5049390;28;20204;-96
2023/09/06 10:00:42;;;;;;;4.15;1.92;;;25.80;99.90;;;;;;5065145;28;20185;-96
2023/09/06 10:03:09;;;;;;;2.67;1.80;;;25.90;99.90;;;;;;5069459;28;20182;-96
2023/09/06 10:05:43;;;;;;;3.38;1.80;;;26.00;99.90;;;;;;5066855;28;20173;-96
2023/09/06 10:08:10;;;;;;;7.78;2.03;;;26.00;99.90;;;;;;5071157;28;20173;-96
2023/09/06 10:10:43;;;;;;;3.38;1.98;;;26.00;99.90;;;;;;5065009;28;20237;-95
2023/09/06 10:13:14;;;;;;;4.00;2.00;;;26.10;99.90;;;;;;5066012;28;20205;-96
2023/09/06 10:15:43;;;;;;;21.73;2.90;;;26.20;99.90;;;;;;5049524;23;20281;-93
2023/09/06 10:18:12;;;;;;;2.60;1.77;;;26.40;99.90;;;;;;5037156;28;20297;-94
2023/09/06 10:20:39;;;;;;;6.63;2.03;;;26.50;99.90;;;;;;5037599;28;20173;-95
2023/09/06 10:23:06;;;;;;;3.83;1.60;;;26.50;99.90;;;;;;5036428;28;20264;-94
2023/09/06 10:25:39;;;;;;;2.97;1.63;;;26.50;99.90;;;;;;5036631;28;20209;-93
2023/09/06 10:28:06;;;;;;;3.33;1.80;;;26.60;99.90;;;;;;5036266;28;20206;-95
2023/09/06 10:30:45;;;;;;;4.00;1.83;;;26.60;99.90;;;;;;5036551;28;20201;-95
2023/09/06 10:33:34;;;;;;;2.97;1.60;;;26.70;99.90;;;;;;5036601;28;20166;-96
2023/09/06 10:36:11;;;;;;;6.50;1.73;;;26.70;99.90;;;;;;5024768;28;20217;-95
2023/09/06 10:38:52;;;;;;;6.35;1.77;;;26.70;99.40;;;;;;5036732;28;20176;-95
2023/09/06 10:41:20;;;;;;;4.22;1.70;;;26.80;99.30;;;;;;5036356;28;20162;-95
2023/09/06 10:44:03;;;;;;;3.92;1.70;;;26.90;99.60;;;;;;5036898;28;20178;-96
2023/09/06 10:46:31;;;;;;;6.72;1.77;;;27.00;99.70;;;;;;5036562;28;20692;-94
2023/09/06 10:49:22;;;;;;;2.08;1.60;;;26.90;99.90;;;;;;5036569;28;20170;-94
2023/09/06 10:52:08;;;;;;;2.67;1.60;;;27.10;98.50;;;;;;5036590;28;20204;-96
2023/09/06 10:54:37;;;;;;;2.88;1.75;;;27.20;99.20;;;;;;5037370;28;20679;-93
2023/09/06 10:57:06;;;;;;;4.03;1.90;;;27.20;99.10;;;;;;5036139;28;20309;-96
2023/09/06 10:59:56;;;;;;;4.60;1.90;;;27.30;98.10;;;;;;5036133;28;20176;-94
2023/09/06 11:02:21;;;;;;;2.92;1.70;;;27.30;98.20;;;;;;5024669;28;20193;-96
2023/09/06 11:04:47;;;;;;;5.28;1.50;;;27.40;98.10;;;;;;5016872;28;20167;-95
2023/09/06 11:07:14;;;;;;;3.00;1.60;;;27.40;97.70;;;;;;5016946;28;20554;-94
2023/09/06 11:09:53;;;;;;;4.65;1.70;;;27.50;98.00;;;;;;5016571;28;20293;-94
2023/09/06 11:12:19;;;;;;;3.78;1.45;;;27.50;98.70;;;;;;5016760;28;20249;-94
2023/09/06 11:14:54;;;;;;;5.60;1.40;;;27.70;98.60;;;;;;5016710;28;20225;-95
2023/09/06 11:17:27;;;;;;;2.00;1.30;;;27.80;98.10;;;;;;5016695;28;20205;-96
2023/09/06 11:19:53;;;;;;;2.92;1.50;;;27.80;97.70;;;;;;5015914;28;20213;-92
2023/09/06 11:22:22;;;;;;;2.75;1.42;;;27.90;97.10;;;;;;5016929;28;20174;-95
2023/09/06 11:24:48;;;;;;;4.45;1.30;;;27.90;97.60;;;;;;5019821;28;20174;-96
2023/09/06 11:27:29;;;;;;;2.55;1.30;;;28.00;96.40;;;;;;5018122;28;20194;-94
2023/09/06 11:30:10;;;;;;;3.25;1.30;;;28.00;97.10;;;;;;5019113;28;20190;-95
2023/09/06 11:32:40;;;;;;;2.20;1.40;;;28.10;95.00;;;;;;5017551;28;20184;-95
2023/09/06 11:35:10;;;;;;;2.97;1.38;;;28.20;95.40;;;;;;5019565;28;20321;-95
2023/09/06 11:37:38;;;;;;;2.95;1.30;;;28.20;95.90;;;;;;5021272;28;20198;-95
2023/09/06 11:40:13;;;;;;;2.83;1.27;;;28.30;94.20;;;;;;5021520;28;20178;-94
2023/09/06 11:43:02;;;;;;;2.78;1.40;;;28.30;95.00;;;;;;5022364;28;20188;-94
2023/09/06 11:45:31;;;;;;;5.10;1.45;;;28.40;94.00;;;;;;5023854;28;20167;-94
2023/09/06 11:48:04;;;;;;;1.73;1.30;;;28.50;95.10;;;;;;5025263;28;20236;-96
2023/09/06 11:50:34;;;;;;;2.17;1.30;;;28.40;94.90;;;;;;5026053;28;20194;-94
2023/09/06 11:53:04;;;;;;;1.33;1.15;;;28.40;94.40;;;;;;5026332;28;20166;-92
2023/09/06 11:55:34;;;;;;;2.30;1.50;;;28.50;93.50;;;;;;5042358;28;20171;-93
2023/09/06 11:58:00;;;;;;;3.90;1.20;;;28.50;94.70;;;;;;5041895;28;20666;-94
2023/09/06 12:00:44;;;;;;;2.45;1.25;;;28.60;94.20;;;;;;5044386;28;20216;-96
2023/09/06 12:03:11;;;;;;;2.92;1.20;;;28.70;93.60;;;;;;5045180;28;20176;-94
2023/09/06 12:05:43;;;;;;;3.47;1.45;;;28.70;94.50;;;;;;5044139;28;20183;-93
2023/09/06 12:08:23;;;;;;;6.80;1.45;;;28.80;95.00;;;;;;5044302;28;20197;-94
2023/09/06 12:11:05;;;;;;;3.28;1.60;;;28.80;94.00;;;;;;5044465;28;20193;-94
2023/09/06 12:13:34;;;;;;;2.38;1.30;;;28.80;92.90;;;;;;5045189;28;20208;-93
2023/09/06 12:16:02;;;;;;;3.42;1.20;;;28.80;93.90;;;;;;5044752;28;20233;-94
2023/09/06 12:18:31;;;;;;;2.75;1.45;;;28.80;93.20;;;;;;5043907;28;20261;-91
2023/09/06 12:20:58;;;;;;;3.50;1.45;;;28.80;94.30;;;;;;5045207;28;20181;-94
2023/09/06 12:23:30;;;;;;;1.55;1.30;;;28.80;93.90;;;;;;5045418;28;20267;-93
2023/09/06 12:25:57;;;;;;;1.83;1.13;;;28.90;94.40;;;;;;5045375;28;20173;-94
2023/09/06 12:28:26;;;;;;;1.80;1.23;;;29.10;92.10;;;;;;5045021;28;20235;-94
2023/09/06 12:30:58;;;;;;;3.35;1.33;;;29.10;92.00;;;;;;5045121;28;20224;-93
2023/09/06 12:33:27;;;;;;;3.25;1.15;;;29.20;92.50;;;;;;5045196;28;20176;-94
2023/09/06 12:36:00;;;;;;;2.85;1.30;;;29.20;91.70;;;;;;5044587;28;20169;-93
2023/09/06 12:38:29;;;;;;;1.95;1.25;;;29.30;91.60;;;;;;5044281;28;20224;-93
2023/09/06 12:40:56;;;;;;;7.05;1.45;;;29.30;92.00;;;;;;5044816;28;20169;-93
2023/09/06 12:43:24;;;;;;;2.35;1.48;;;29.30;92.00;;;;;;5044879;28;20173;-93
2023/09/06 12:45:53;;;;;;;3.58;1.33;;;29.30;92.00;;;;;;5043545;28;20173;-96
2023/09/06 12:48:24;;;;;;;3.40;1.27;;;29.40;92.40;;;;;;5043685;28;20224;-93
2023/09/06 12:50:50;;;;;;;3.45;1.30;;;29.40;93.00;;;;;;5043975;28;20240;-93
2023/09/06 12:53:19;;;;;;;1.55;1.23;;;29.50;91.10;;;;;;5044373;28;20196;-96
2023/09/06 12:55:48;;;;;;;1.77;1.10;;;29.50;91.10;;;;;;5044515;28;20177;-93
2023/09/06 12:58:15;;;;;;;1.83;1.30;;;29.60;91.20;;;;;;5043923;28;20200;-93
2023/09/06 13:00:41;;;;;;;2.03;1.15;;;29.60;91.30;;;;;;5044436;28;20173;-93
2023/09/06 13:03:11;;;;;;;1.90;1.27;;;29.60;92.00;;;;;;5044108;28;20185;-93
2023/09/06 13:05:43;;;;;;;1.92;1.30;;;29.60;91.60;;;;;;5040854;28;20216;-93